Terminal Aerodrome Forecast
Issued by NWS

Home | Current Version | Previous Version | Text Only | Print | Product List | Glossary On
Versions: 1 2 3 4 5 6 7 8 9 10 11 12 13 14 15
000
FTUS46 KLOX 201100
TAFVNY
TAF
KVNY 201125Z 2012/2112 VRB03KT P6SM OVC022
     FM201900 13007KT P6SM SCT035
     FM202200 14008KT P6SM FEW035 BKN100
     FM210300 VRB03KT P6SM FEW035
     FM210600 VRB03KT P6SM OVC020=

USA.gov is the U.S. government's official web portal to all federal, state and local government web resources and services.